Westerdam — PINX — position and weather

sailwx.info

Track history (hours):
 
Tides and Currents Weather Stations Pressure Air Temp Water Temp Dewpoint Dewpoint Depression Visibility Wind Speed Wind Dir Waves Ship Positions

Westerdam

Operator: Holland America Line

Last reported at 2019-Oct-22 20:40 UTC. Time now 2019-Oct-23 20:54 UTC.
Position N 38°47' E 121°42'.

Type: Passenger vessel. MMSI: 244128000.

Date/timePositionNaut miles runAvg speedWind from/ knotsBaromVisibWave heightAir tempDewpointWater temp
2019-Oct-22 20:40N 38°47' E 121°42'417.9
2019-Oct-22 20:27N 38°45' E 121°38'4017.6
2019-Oct-22 18:12N 38°32' E 120°50'422.0
2019-Oct-22 18:00N 38°33' E 120°44'11122.1
2019-Oct-22 13:00N 38°48' E 118°24'   130 / 131018.210.8 18.4 1.424.0
2019-Oct-19 11:00N 32°24' E 128°06'1515.2 360 / 301019.310.8 21.8 4.821.0
2019-Oct-19 10:00N 32°24' E 128°24'62 3.9 360 / 281018.810.8 22.0 7.421.0
2019-Oct-18 18:00N 33°06' E 129°18'11918.3
2019-Oct-18 11:31N 35°04' E 129°07'012.2
2019-Oct-18 11:30N 35°05' E 129°07'4 7.3
2019-Oct-18 11:00N 35°07' E 129°03'0 0.3
2019-Oct-18 10:26N 35°07' E 129°03'0 0.0
2019-Oct-18 09:59N 35°07' E 129°03'0 0.0
2019-Oct-18 09:29N 35°07' E 129°03'0 0.0
2019-Oct-18 08:59N 35°07' E 129°03'0 0.0
2019-Oct-18 08:29N 35°07' E 129°03'0 0.0
2019-Oct-18 07:59N 35°07' E 129°03'0 0.0
2019-Oct-18 07:29N 35°07' E 129°03'0 0.0
2019-Oct-18 06:59N 35°07' E 129°03'0 0.0
2019-Oct-18 06:29N 35°07' E 129°03'0 0.0
2019-Oct-18 05:59N 35°07' E 129°03'0 0.0
2019-Oct-18 05:29N 35°07' E 129°03'0 0.0
2019-Oct-18 04:59N 35°07' E 129°03'0 0.0
2019-Oct-18 04:29N 35°07' E 129°03'0 0.0
2019-Oct-18 03:59N 35°07' E 129°03'0 0.0
2019-Oct-18 03:29N 35°07' E 129°03'0 0.0
2019-Oct-18 02:59N 35°07' E 129°03'0 0.0
2019-Oct-18 02:29N 35°07' E 129°03'0 0.0
2019-Oct-18 01:59N 35°07' E 129°03'0 0.0
2019-Oct-18 01:29N 35°07' E 129°03'0 0.0
2019-Oct-18 00:59N 35°07' E 129°03'0 0.0
2019-Oct-18 00:29N 35°07' E 129°03'0 0.0
2019-Oct-17 23:59N 35°07' E 129°03'0 0.0
2019-Oct-17 23:29N 35°07' E 129°03'0 0.0
2019-Oct-17 22:59N 35°07' E 129°03'0 0.0
2019-Oct-17 22:29N 35°07' E 129°03'0 0.0
2019-Oct-17 21:59N 35°07' E 129°03'0 0.0
2019-Oct-17 21:29N 35°07' E 129°03'0 0.0
2019-Oct-17 20:59N 35°07' E 129°03'0 0.0
2019-Oct-17 20:29N 35°07' E 129°03'1 1.3
2019-Oct-17 20:01N 35°06' E 129°04'4 8.6
2019-Oct-17 19:31N 35°04' E 129°08'710.8
2019-Oct-17 18:53N 35°03' E 129°16'48 8.1
2019-Oct-17 13:00N 34°48' E 130°12'1212.0 080 / 251022.110.8 20.8 3.521.0
2019-Oct-17 12:00N 34°36' E 130°12'1212.0 050 / 181022.510.8 20.6 2.921.0
2019-Oct-17 11:00N 34°24' E 130°12'1211.6 060 / 211022.310.8 20.2 2.122.0
2019-Oct-17 10:00N 34°18' E 130°24'22412.1 040 / 211022.410.8 19.9 0.822.0
2019-Oct-16 15:28N 33°55' E 134°53'920.2
2019-Oct-16 15:00N 34°04' E 134°53'918.2
2019-Oct-16 14:30N 34°13' E 134°56'815.2
2019-Oct-16 14:00N 34°20' E 134°59'5297.0
2019-Oct-16 14:00N 34°18' E 134°54'1428.1 040 / 131024.110.8 18.1 2.025.0
2019-Oct-16 13:30N 34°29' E 135°04'1019.3
2019-Oct-16 13:00N 34°36' E 135°12'8523.9
2019-Oct-16 13:00N 34°30' E 135°06'1632.6 060 / 151024.410.8 17.3-0.925.0
2019-Oct-16 12:30N 34°38' E 135°23'3 6.0
2019-Oct-16 12:00N 34°39' E 135°26'0 0.1
2019-Oct-16 11:28N 34°39' E 135°26'0 0.0
2019-Oct-16 10:58N 34°39' E 135°26'0 0.0
2019-Oct-16 10:04N 34°39' E 135°26'0 0.0
2019-Oct-16 09:52N 34°39' E 135°26'0 0.0
2019-Oct-16 09:28N 34°39' E 135°26'0 0.0
2019-Oct-16 08:52N 34°39' E 135°26'0 0.0
2019-Oct-16 08:28N 34°39' E 135°26'0 0.0
2019-Oct-16 07:58N 34°39' E 135°26'0 0.0
2019-Oct-16 07:28N 34°39' E 135°26'0 0.0
2019-Oct-16 06:52N 34°39' E 135°26'0 0.0
2019-Oct-16 06:22N 34°39' E 135°26'0 0.0
2019-Oct-16 05:58N 34°39' E 135°26'0 0.0
2019-Oct-16 05:28N 34°39' E 135°26'0 0.0
2019-Oct-16 04:52N 34°39' E 135°26'0 0.0
2019-Oct-16 04:28N 34°39' E 135°26'0 0.0
2019-Oct-16 03:46N 34°39' E 135°26'0 0.0
2019-Oct-16 03:28N 34°39' E 135°26'0 0.0
2019-Oct-16 02:46N 34°39' E 135°26'0 0.0
2019-Oct-16 02:28N 34°39' E 135°26'0 0.0
2019-Oct-16 01:58N 34°39' E 135°26'0 0.0
2019-Oct-16 01:22N 34°39' E 135°26'0 0.0
2019-Oct-16 00:58N 34°39' E 135°26'0 0.0
2019-Oct-16 00:28N 34°39' E 135°26'0 0.0
2019-Oct-15 23:58N 34°39' E 135°26'0 0.0
2019-Oct-15 23:22N 34°39' E 135°26'0 0.0
2019-Oct-15 22:58N 34°39' E 135°26'0 0.0
2019-Oct-15 22:22N 34°39' E 135°26'0 0.0
2019-Oct-15 21:58N 34°39' E 135°26'0 0.0
2019-Oct-15 21:28N 34°39' E 135°26'3 6.3
2019-Oct-15 21:00N 34°38' E 135°23'817.0
2019-Oct-15 20:31N 34°33' E 135°15'917.6
2019-Oct-15 20:01N 34°27' E 135°07'917.9
2019-Oct-15 19:31N 34°19' E 135°01'815.6
2019-Oct-15 19:00N 34°12' E 134°59'510.2
2019-Oct-15 18:31N 34°07' E 134°58'713.1
2019-Oct-15 18:00N 34°00' E 134°56'4 8.3
2019-Oct-15 17:31N 33°56' E 134°55'22 8.8
2019-Oct-15 15:00N 33°36' E 135°06'2814.2 330 / 24
2019-Oct-15 13:00N 33°12' E 135°24'1211.7 330 / 241022.710.8 20.3 2.125.0
2019-Oct-15 12:00N 33°06' E 135°36'1919.3 340 / 171022.210.8 21.7 2.425.0
2019-Oct-15 11:00N 32°54' E 135°54'0 0.0 040 / 181021.310.8 23.5 1.725.0
2019-Oct-15 10:00N 32°54' E 135°54'17513.4 030 / 221021.010.8 23.5-3.825.0
2019-Oct-14 21:00N 34°24' E 138°54'4615.8 050 / 241018.910.8 20.210.6
2019-Oct-14 18:04N 34°59' E 139°30'212.5
2019-Oct-14 17:54N 35°00' E 139°32'714.3
2019-Oct-14 17:26N 35°04' E 139°39'614.4
2019-Oct-14 17:00N 35°09' E 139°45'611.9
2019-Oct-14 16:30N 35°14' E 139°46'612.1
2019-Oct-14 16:00N 35°20' E 139°43'611.8
2019-Oct-14 15:30N 35°25' E 139°43'4 7.7
2019-Oct-14 15:00N 35°28' E 139°39'0 0.8
2019-Oct-14 14:28N 35°27' E 139°39'0 0.0
2019-Oct-14 13:58N 35°27' E 139°39'0 0.0
2019-Oct-14 13:25N 35°27' E 139°39'0 0.0
2019-Oct-14 12:58N 35°27' E 139°39'0 0.0
2019-Oct-14 12:28N 35°27' E 139°39'0 0.0
2019-Oct-14 11:58N 35°27' E 139°39'0 0.0
2019-Oct-14 11:28N 35°27' E 139°39'0 0.0
2019-Oct-14 10:58N 35°27' E 139°39'0 0.0
2019-Oct-14 10:28N 35°27' E 139°39'0 0.0
2019-Oct-14 09:55N 35°27' E 139°39'0 0.0
2019-Oct-14 09:29N 35°27' E 139°39'0 0.0
2019-Oct-14 08:58N 35°27' E 139°39'0 0.0
2019-Oct-14 08:28N 35°27' E 139°39'0 0.0
2019-Oct-14 07:58N 35°27' E 139°39'0 0.0
2019-Oct-14 07:28N 35°27' E 139°39'0 0.0
2019-Oct-14 06:55N 35°27' E 139°39'0 0.0
2019-Oct-14 06:28N 35°27' E 139°39'0 0.0
2019-Oct-14 05:58N 35°27' E 139°39'0 0.0
2019-Oct-14 05:28N 35°27' E 139°39'0 0.0
2019-Oct-14 04:58N 35°27' E 139°39'0 0.0
2019-Oct-14 04:28N 35°27' E 139°39'0 0.0
2019-Oct-14 03:58N 35°27' E 139°39'0 0.0
2019-Oct-14 03:28N 35°27' E 139°39'0 0.0
2019-Oct-14 02:58N 35°27' E 139°39'0 0.0
2019-Oct-14 02:28N 35°27' E 139°39'0 0.0
2019-Oct-14 01:58N 35°27' E 139°39'0 0.0
2019-Oct-14 01:28N 35°27' E 139°39'0 0.0
2019-Oct-14 00:58N 35°27' E 139°39'0 0.0
2019-Oct-14 00:28N 35°27' E 139°39'0 0.0
2019-Oct-13 23:58N 35°27' E 139°39'0 0.0
2019-Oct-13 23:28N 35°27' E 139°39'0 0.0
2019-Oct-13 22:58N 35°27' E 139°39'0 0.0
2019-Oct-13 22:28N 35°27' E 139°39'0 0.0
2019-Oct-13 21:58N 35°27' E 139°39'0 0.0
2019-Oct-13 21:28N 35°27' E 139°39'0 0.0
2019-Oct-13 20:58N 35°27' E 139°39'0 0.0
2019-Oct-13 20:28N 35°27' E 139°39'0 0.6
2019-Oct-13 20:00N 35°27' E 139°39'3 6.0
2019-Oct-13 19:30N 35°26' E 139°42'4 8.0
2019-Oct-13 19:00N 35°22' E 139°43'5 9.5
2019-Oct-13 18:30N 35°18' E 139°45'510.7
2019-Oct-13 18:00N 35°13' E 139°47'5 9.6
2019-Oct-13 17:30N 35°08' E 139°46'5 9.7
2019-Oct-13 17:00N 35°03' E 139°45'6 9.1
2019-Oct-13 16:19N 35°00' E 139°38'5516.5
2019-Oct-13 13:00N 34°24' E 138°48'   050 / 401018.610.8 24.0 4.420.0
Track history (hours):
 
Tides and Currents Weather Stations Pressure Air Temp Water Temp Dewpoint Dewpoint Depression Visibility Wind Speed Wind Dir Waves Ship Positions

Westerdam

Operator: Holland America Line

Last reported at 2019-Oct-22 20:40 UTC. Time now 2019-Oct-23 20:54 UTC.
Position N 38°47' E 121°42'.

Type: Passenger vessel. MMSI: 244128000.

Date/timePositionNaut miles runAvg speedWind from/ knotsBaromVisibWave heightAir tempDewpointWater temp
2019-Oct-22 20:40N 38°47' E 121°42'417.9
2019-Oct-22 20:27N 38°45' E 121°38'4017.6
2019-Oct-22 18:12N 38°32' E 120°50'422.0
2019-Oct-22 18:00N 38°33' E 120°44'11122.1
2019-Oct-22 13:00N 38°48' E 118°24'   130 / 131018.210.8 18.4 1.424.0
2019-Oct-19 11:00N 32°24' E 128°06'1515.2 360 / 301019.310.8 21.8 4.821.0
2019-Oct-19 10:00N 32°24' E 128°24'62 3.9 360 / 281018.810.8 22.0 7.421.0
2019-Oct-18 18:00N 33°06' E 129°18'11918.3
2019-Oct-18 11:31N 35°04' E 129°07'012.2
2019-Oct-18 11:30N 35°05' E 129°07'4 7.3
2019-Oct-18 11:00N 35°07' E 129°03'0 0.3
2019-Oct-18 10:26N 35°07' E 129°03'0 0.0
2019-Oct-18 09:59N 35°07' E 129°03'0 0.0
2019-Oct-18 09:29N 35°07' E 129°03'0 0.0
2019-Oct-18 08:59N 35°07' E 129°03'0 0.0
2019-Oct-18 08:29N 35°07' E 129°03'0 0.0
2019-Oct-18 07:59N 35°07' E 129°03'0 0.0
2019-Oct-18 07:29N 35°07' E 129°03'0 0.0
2019-Oct-18 06:59N 35°07' E 129°03'0 0.0
2019-Oct-18 06:29N 35°07' E 129°03'0 0.0
2019-Oct-18 05:59N 35°07' E 129°03'0 0.0
2019-Oct-18 05:29N 35°07' E 129°03'0 0.0
2019-Oct-18 04:59N 35°07' E 129°03'0 0.0
2019-Oct-18 04:29N 35°07' E 129°03'0 0.0
2019-Oct-18 03:59N 35°07' E 129°03'0 0.0
2019-Oct-18 03:29N 35°07' E 129°03'0 0.0
2019-Oct-18 02:59N 35°07' E 129°03'0 0.0
2019-Oct-18 02:29N 35°07' E 129°03'0 0.0
2019-Oct-18 01:59N 35°07' E 129°03'0 0.0
2019-Oct-18 01:29N 35°07' E 129°03'0 0.0
2019-Oct-18 00:59N 35°07' E 129°03'0 0.0
2019-Oct-18 00:29N 35°07' E 129°03'0 0.0
2019-Oct-17 23:59N 35°07' E 129°03'0 0.0
2019-Oct-17 23:29N 35°07' E 129°03'0 0.0
2019-Oct-17 22:59N 35°07' E 129°03'0 0.0
2019-Oct-17 22:29N 35°07' E 129°03'0 0.0
2019-Oct-17 21:59N 35°07' E 129°03'0 0.0
2019-Oct-17 21:29N 35°07' E 129°03'0 0.0
2019-Oct-17 20:59N 35°07' E 129°03'0 0.0
2019-Oct-17 20:29N 35°07' E 129°03'1 1.3
2019-Oct-17 20:01N 35°06' E 129°04'4 8.6
2019-Oct-17 19:31N 35°04' E 129°08'710.8
2019-Oct-17 18:53N 35°03' E 129°16'48 8.1
2019-Oct-17 13:00N 34°48' E 130°12'1212.0 080 / 251022.110.8 20.8 3.521.0
2019-Oct-17 12:00N 34°36' E 130°12'1212.0 050 / 181022.510.8 20.6 2.921.0
2019-Oct-17 11:00N 34°24' E 130°12'1211.6 060 / 211022.310.8 20.2 2.122.0
2019-Oct-17 10:00N 34°18' E 130°24'22412.1 040 / 211022.410.8 19.9 0.822.0
2019-Oct-16 15:28N 33°55' E 134°53'920.2
2019-Oct-16 15:00N 34°04' E 134°53'918.2
2019-Oct-16 14:30N 34°13' E 134°56'815.2
2019-Oct-16 14:00N 34°20' E 134°59'5297.0
2019-Oct-16 14:00N 34°18' E 134°54'1428.1 040 / 131024.110.8 18.1 2.025.0
2019-Oct-16 13:30N 34°29' E 135°04'1019.3
2019-Oct-16 13:00N 34°36' E 135°12'8523.9
2019-Oct-16 13:00N 34°30' E 135°06'1632.6 060 / 151024.410.8 17.3-0.925.0
2019-Oct-16 12:30N 34°38' E 135°23'3 6.0
2019-Oct-16 12:00N 34°39' E 135°26'0 0.1
2019-Oct-16 11:28N 34°39' E 135°26'0 0.0
2019-Oct-16 10:58N 34°39' E 135°26'0 0.0
2019-Oct-16 10:04N 34°39' E 135°26'0 0.0
2019-Oct-16 09:52N 34°39' E 135°26'0 0.0
2019-Oct-16 09:28N 34°39' E 135°26'0 0.0
2019-Oct-16 08:52N 34°39' E 135°26'0 0.0
2019-Oct-16 08:28N 34°39' E 135°26'0 0.0
2019-Oct-16 07:58N 34°39' E 135°26'0 0.0
2019-Oct-16 07:28N 34°39' E 135°26'0 0.0
2019-Oct-16 06:52N 34°39' E 135°26'0 0.0
2019-Oct-16 06:22N 34°39' E 135°26'0 0.0
2019-Oct-16 05:58N 34°39' E 135°26'0 0.0
2019-Oct-16 05:28N 34°39' E 135°26'0 0.0
2019-Oct-16 04:52N 34°39' E 135°26'0 0.0
2019-Oct-16 04:28N 34°39' E 135°26'0 0.0
2019-Oct-16 03:46N 34°39' E 135°26'0 0.0
2019-Oct-16 03:28N 34°39' E 135°26'0 0.0
2019-Oct-16 02:46N 34°39' E 135°26'0 0.0
2019-Oct-16 02:28N 34°39' E 135°26'0 0.0
2019-Oct-16 01:58N 34°39' E 135°26'0 0.0
2019-Oct-16 01:22N 34°39' E 135°26'0 0.0
2019-Oct-16 00:58N 34°39' E 135°26'0 0.0
2019-Oct-16 00:28N 34°39' E 135°26'0 0.0
2019-Oct-15 23:58N 34°39' E 135°26'0 0.0
2019-Oct-15 23:22N 34°39' E 135°26'0 0.0
2019-Oct-15 22:58N 34°39' E 135°26'0 0.0
2019-Oct-15 22:22N 34°39' E 135°26'0 0.0
2019-Oct-15 21:58N 34°39' E 135°26'0 0.0
2019-Oct-15 21:28N 34°39' E 135°26'3 6.3
2019-Oct-15 21:00N 34°38' E 135°23'817.0
2019-Oct-15 20:31N 34°33' E 135°15'917.6
2019-Oct-15 20:01N 34°27' E 135°07'917.9
2019-Oct-15 19:31N 34°19' E 135°01'815.6
2019-Oct-15 19:00N 34°12' E 134°59'510.2
2019-Oct-15 18:31N 34°07' E 134°58'713.1
2019-Oct-15 18:00N 34°00' E 134°56'4 8.3
2019-Oct-15 17:31N 33°56' E 134°55'22 8.8
2019-Oct-15 15:00N 33°36' E 135°06'2814.2 330 / 24
2019-Oct-15 13:00N 33°12' E 135°24'1211.7 330 / 241022.710.8 20.3 2.125.0
2019-Oct-15 12:00N 33°06' E 135°36'1919.3 340 / 171022.210.8 21.7 2.425.0
2019-Oct-15 11:00N 32°54' E 135°54'0 0.0 040 / 181021.310.8 23.5 1.725.0
2019-Oct-15 10:00N 32°54' E 135°54'17513.4 030 / 221021.010.8 23.5-3.825.0
2019-Oct-14 21:00N 34°24' E 138°54'4615.8 050 / 241018.910.8 20.210.6
2019-Oct-14 18:04N 34°59' E 139°30'212.5
2019-Oct-14 17:54N 35°00' E 139°32'714.3
2019-Oct-14 17:26N 35°04' E 139°39'614.4
2019-Oct-14 17:00N 35°09' E 139°45'611.9
2019-Oct-14 16:30N 35°14' E 139°46'612.1
2019-Oct-14 16:00N 35°20' E 139°43'611.8
2019-Oct-14 15:30N 35°25' E 139°43'4 7.7
2019-Oct-14 15:00N 35°28' E 139°39'0 0.8
2019-Oct-14 14:28N 35°27' E 139°39'0 0.0
2019-Oct-14 13:58N 35°27' E 139°39'0 0.0
2019-Oct-14 13:25N 35°27' E 139°39'0 0.0
2019-Oct-14 12:58N 35°27' E 139°39'0 0.0
2019-Oct-14 12:28N 35°27' E 139°39'0 0.0
2019-Oct-14 11:58N 35°27' E 139°39'0 0.0
2019-Oct-14 11:28N 35°27' E 139°39'0 0.0
2019-Oct-14 10:58N 35°27' E 139°39'0 0.0
2019-Oct-14 10:28N 35°27' E 139°39'0 0.0
2019-Oct-14 09:55N 35°27' E 139°39'0 0.0
2019-Oct-14 09:29N 35°27' E 139°39'0 0.0
2019-Oct-14 08:58N 35°27' E 139°39'0 0.0
2019-Oct-14 08:28N 35°27' E 139°39'0 0.0
2019-Oct-14 07:58N 35°27' E 139°39'0 0.0
2019-Oct-14 07:28N 35°27' E 139°39'0 0.0
2019-Oct-14 06:55N 35°27' E 139°39'0 0.0
2019-Oct-14 06:28N 35°27' E 139°39'0 0.0
2019-Oct-14 05:58N 35°27' E 139°39'0 0.0
2019-Oct-14 05:28N 35°27' E 139°39'0 0.0
2019-Oct-14 04:58N 35°27' E 139°39'0 0.0
2019-Oct-14 04:28N 35°27' E 139°39'0 0.0
2019-Oct-14 03:58N 35°27' E 139°39'0 0.0
2019-Oct-14 03:28N 35°27' E 139°39'0 0.0
2019-Oct-14 02:58N 35°27' E 139°39'0 0.0
2019-Oct-14 02:28N 35°27' E 139°39'0 0.0
2019-Oct-14 01:58N 35°27' E 139°39'0 0.0
2019-Oct-14 01:28N 35°27' E 139°39'0 0.0
2019-Oct-14 00:58N 35°27' E 139°39'0 0.0
2019-Oct-14 00:28N 35°27' E 139°39'0 0.0
2019-Oct-13 23:58N 35°27' E 139°39'0 0.0
2019-Oct-13 23:28N 35°27' E 139°39'0 0.0
2019-Oct-13 22:58N 35°27' E 139°39'0 0.0
2019-Oct-13 22:28N 35°27' E 139°39'0 0.0
2019-Oct-13 21:58N 35°27' E 139°39'0 0.0
2019-Oct-13 21:28N 35°27' E 139°39'0 0.0
2019-Oct-13 20:58N 35°27' E 139°39'0 0.0
2019-Oct-13 20:28N 35°27' E 139°39'0 0.6
2019-Oct-13 20:00N 35°27' E 139°39'3 6.0
2019-Oct-13 19:30N 35°26' E 139°42'4 8.0
2019-Oct-13 19:00N 35°22' E 139°43'5 9.5
2019-Oct-13 18:30N 35°18' E 139°45'510.7
2019-Oct-13 18:00N 35°13' E 139°47'5 9.6
2019-Oct-13 17:30N 35°08' E 139°46'5 9.7
2019-Oct-13 17:00N 35°03' E 139°45'6 9.1
2019-Oct-13 16:19N 35°00' E 139°38'5516.5
2019-Oct-13 13:00N 34°24' E 138°48'   050 / 401018.610.8 24.0 4.420.0

Dump ship's entire track history